createdAt,value
2016-10-12T00:00:26.777Z,929.73
2016-10-12T00:01:37.510Z,929.66
2016-10-12T00:02:48.212Z,929.68
2016-10-12T00:03:58.913Z,929.66
2016-10-12T00:05:09.628Z,929.65
2016-10-12T00:06:20.364Z,929.62
2016-10-12T00:07:31.105Z,929.57
2016-10-12T00:08:41.823Z,929.55
2016-10-12T00:09:52.575Z,929.48
2016-10-12T00:11:03.281Z,929.5
2016-10-12T00:12:13.995Z,929.43
2016-10-12T00:13:24.722Z,929.48
2016-10-12T00:14:35.439Z,929.48
2016-10-12T00:15:46.137Z,929.48
2016-10-12T00:16:56.841Z,929.52
2016-10-12T00:18:07.568Z,929.51
2016-10-12T00:19:18.263Z,929.49
2016-10-12T00:20:28.949Z,929.55
2016-10-12T00:21:40.165Z,929.53
2016-10-12T00:22:50.874Z,929.6
2016-10-12T00:24:01.598Z,929.55
2016-10-12T00:25:12.291Z,929.49
2016-10-12T00:26:23.019Z,929.4
2016-10-12T00:27:33.728Z,929.29
2016-10-12T00:28:44.426Z,929.25
2016-10-12T00:29:55.154Z,929.2
2016-10-12T00:31:05.888Z,929.2
2016-10-12T00:32:16.615Z,929.15
2016-10-12T00:33:27.316Z,929.16
2016-10-12T00:34:38.019Z,929.22
2016-10-12T00:35:48.729Z,929.24
2016-10-12T00:36:59.435Z,929.19
2016-10-12T00:38:10.107Z,929.19
2016-10-12T00:39:20.816Z,929.01
2016-10-12T00:40:31.520Z,929.04
2016-10-12T00:41:42.259Z,929.09
2016-10-12T00:42:53.512Z,929.11
2016-10-12T00:44:04.267Z,929.17
2016-10-12T00:45:14.966Z,929.25
2016-10-12T00:46:25.655Z,929.33
2016-10-12T00:47:36.361Z,929.39
2016-10-12T00:48:47.062Z,929.42
2016-10-12T00:49:57.757Z,929.44
2016-10-12T00:51:08.455Z,929.44
2016-10-12T00:52:19.165Z,929.47
2016-10-12T00:53:29.878Z,929.41
2016-10-12T00:54:41.085Z,929.29
2016-10-12T00:55:51.777Z,929.32
2016-10-12T00:57:02.490Z,929.35
2016-10-12T00:58:13.212Z,929.25
2016-10-12T00:59:23.924Z,929.3
2016-10-12T01:00:34.640Z,929.3
2016-10-12T01:01:45.348Z,929.39
2016-10-12T01:02:56.052Z,929.36
2016-10-12T01:04:06.761Z,929.34
2016-10-12T01:05:17.487Z,929.31
2016-10-12T01:06:28.167Z,929.28
2016-10-12T01:07:38.882Z,929.37
2016-10-12T01:08:49.594Z,929.4
2016-10-12T01:10:00.278Z,929.49
2016-10-12T01:11:10.990Z,929.51
2016-10-12T01:12:21.704Z,929.54
2016-10-12T01:13:32.392Z,929.54
2016-10-12T01:14:43.119Z,929.6
2016-10-12T01:15:53.830Z,929.62
2016-10-12T01:17:04.569Z,929.68
2016-10-12T01:18:15.320Z,929.69
2016-10-12T01:19:26.030Z,929.68
2016-10-12T01:20:36.747Z,929.72
2016-10-12T01:21:47.472Z,929.74
2016-10-12T01:22:58.187Z,929.79
2016-10-12T01:24:08.909Z,929.83
2016-10-12T01:25:19.627Z,929.81
2016-10-12T01:26:30.379Z,929.81
2016-10-12T01:27:41.583Z,929.8
2016-10-12T01:28:52.300Z,929.78
2016-10-12T01:30:03.024Z,929.75
2016-10-12T01:31:13.745Z,929.71
2016-10-12T01:32:24.436Z,929.7
2016-10-12T01:33:35.125Z,929.68
2016-10-12T01:34:45.841Z,929.69
2016-10-12T01:35:56.561Z,929.65
2016-10-12T01:37:07.263Z,929.63
2016-10-12T01:38:18.012Z,929.6
2016-10-12T01:39:28.702Z,929.58
2016-10-12T01:40:39.423Z,929.57
2016-10-12T01:41:50.140Z,929.55
2016-10-12T01:43:00.876Z,929.56
2016-10-12T01:44:11.575Z,929.59
2016-10-12T01:45:22.259Z,929.67
2016-10-12T01:46:32.972Z,929.69
2016-10-12T01:47:43.710Z,929.71
2016-10-12T01:48:54.438Z,929.75
2016-10-12T01:50:05.143Z,929.69
2016-10-12T01:51:15.870Z,929.74
2016-10-12T01:52:26.584Z,929.69
2016-10-12T01:53:37.262Z,929.65
2016-10-12T01:54:47.960Z,929.66
2016-10-12T01:55:58.649Z,929.63
2016-10-12T01:57:09.358Z,929.63
2016-10-12T01:58:20.066Z,929.61
2016-10-12T01:59:30.761Z,929.63
2016-10-12T02:00:41.460Z,929.65
2016-10-12T02:01:52.192Z,929.63
2016-10-12T02:03:02.908Z,929.63
2016-10-12T02:04:13.610Z,929.68
2016-10-12T02:05:24.300Z,929.7
2016-10-12T02:06:35.044Z,929.67
2016-10-12T02:07:45.732Z,929.67
2016-10-12T02:08:56.431Z,929.65
2016-10-12T02:10:07.677Z,929.62
2016-10-12T02:11:18.393Z,929.63
2016-10-12T02:12:29.105Z,929.59
2016-10-12T02:13:39.807Z,929.57
2016-10-12T02:14:50.533Z,929.57
2016-10-12T02:16:01.227Z,929.52
2016-10-12T02:17:11.944Z,929.54
2016-10-12T02:18:22.653Z,929.51
2016-10-12T02:19:33.368Z,929.52
2016-10-12T02:20:44.081Z,929.52
2016-10-12T02:21:54.796Z,929.54
2016-10-12T02:23:05.510Z,929.55
2016-10-12T02:24:16.208Z,929.57
2016-10-12T02:25:26.922Z,929.59
2016-10-12T02:26:38.162Z,929.66
2016-10-12T02:27:48.870Z,929.65
2016-10-12T02:28:59.574Z,929.65
2016-10-12T02:30:10.293Z,929.67
2016-10-12T02:31:21.022Z,929.66
2016-10-12T02:32:31.722Z,929.68
2016-10-12T02:33:42.437Z,929.63
2016-10-12T02:34:53.163Z,929.57
2016-10-12T02:36:03.875Z,929.55
2016-10-12T02:37:14.577Z,929.54
2016-10-12T02:38:25.262Z,929.53
2016-10-12T02:39:35.967Z,929.53
2016-10-12T02:40:46.653Z,929.48
2016-10-12T02:41:57.350Z,929.55
2016-10-12T02:43:08.034Z,929.57
2016-10-12T02:44:18.749Z,929.6
2016-10-12T02:45:29.450Z,929.58
2016-10-12T02:46:40.186Z,929.57
2016-10-12T02:47:50.903Z,929.57
2016-10-12T02:49:01.649Z,929.52
2016-10-12T02:50:12.343Z,929.44
2016-10-12T02:51:23.074Z,929.43
2016-10-12T02:52:33.764Z,929.38
2016-10-12T02:53:44.487Z,929.33
2016-10-12T02:54:55.185Z,929.3
2016-10-12T02:56:05.898Z,929.27
2016-10-12T02:57:16.582Z,929.27
2016-10-12T02:58:27.300Z,929.2
2016-10-12T02:59:38.000Z,929.22
2016-10-12T03:00:48.694Z,929.18
2016-10-12T03:01:59.429Z,929.18
2016-10-12T03:03:10.138Z,929.14
2016-10-12T03:04:20.850Z,929.19
2016-10-12T03:05:31.562Z,929.16
2016-10-12T03:06:42.241Z,929.2
2016-10-12T03:07:53.335Z,929.15
2016-10-12T03:09:04.070Z,929.14
2016-10-12T03:10:14.793Z,929.05
2016-10-12T03:11:25.498Z,929.08
2016-10-12T03:12:36.205Z,929.06
2016-10-12T03:13:46.923Z,929.02
2016-10-12T03:14:57.641Z,928.98
2016-10-12T03:16:08.326Z,928.97
2016-10-12T03:17:19.021Z,928.99
2016-10-12T03:18:29.735Z,929.02
2016-10-12T03:19:40.456Z,928.98
2016-10-12T03:20:51.183Z,928.95
2016-10-12T03:22:01.882Z,928.97
2016-10-12T03:23:12.583Z,928.97
2016-10-12T03:24:23.284Z,928.98
2016-10-12T03:25:34.002Z,928.98
2016-10-12T03:26:44.691Z,928.98
2016-10-12T03:27:55.392Z,928.92
2016-10-12T03:29:06.115Z,928.94
2016-10-12T03:30:16.840Z,928.93
2016-10-12T03:31:27.543Z,928.92
2016-10-12T03:32:38.777Z,928.9
2016-10-12T03:33:50.021Z,928.9
2016-10-12T03:35:00.748Z,928.97
2016-10-12T03:36:11.477Z,928.95
2016-10-12T03:37:22.183Z,928.97
2016-10-12T03:38:32.877Z,928.92
2016-10-12T03:39:44.097Z,928.91
2016-10-12T03:40:54.819Z,928.94
2016-10-12T03:42:06.041Z,928.88
2016-10-12T03:43:17.265Z,928.88
2016-10-12T03:44:27.980Z,928.85
2016-10-12T03:45:38.713Z,928.86
2016-10-12T03:46:49.422Z,928.85
2016-10-12T03:48:00.649Z,928.8
2016-10-12T03:49:12.369Z,928.78
2016-10-12T03:50:23.584Z,928.75
2016-10-12T03:51:34.312Z,928.72
2016-10-12T03:52:45.014Z,928.69
2016-10-12T03:53:57.252Z,928.67
2016-10-12T03:55:08.452Z,928.58
2016-10-12T03:56:19.658Z,928.56
2016-10-12T03:57:30.895Z,928.52
2016-10-12T03:58:41.616Z,928.47
2016-10-12T03:59:52.317Z,928.42
2016-10-12T04:01:03.026Z,928.37
2016-10-12T04:02:13.716Z,928.33
2016-10-12T04:03:25.582Z,928.28
2016-10-12T04:04:36.294Z,928.27
2016-10-12T04:05:47.015Z,928.25
2016-10-12T04:06:57.740Z,928.22
2016-10-12T04:08:08.472Z,928.24
2016-10-12T04:09:19.665Z,928.24
2016-10-12T04:10:30.355Z,928.23
2016-10-12T04:11:41.060Z,928.28
2016-10-12T04:12:52.291Z,928.29
2016-10-12T04:14:03.004Z,928.29
2016-10-12T04:15:13.697Z,928.27
2016-10-12T04:16:24.900Z,928.25
2016-10-12T04:17:36.126Z,928.27
2016-10-12T04:18:46.850Z,928.23
2016-10-12T04:19:57.556Z,928.22
2016-10-12T04:21:08.264Z,928.17
2016-10-12T04:22:18.952Z,928.12
2016-10-12T04:23:29.641Z,928.06
2016-10-12T04:24:40.865Z,928.05
2016-10-12T04:25:51.578Z,928
2016-10-12T04:27:02.315Z,927.97
2016-10-12T04:28:13.041Z,927.95
2016-10-12T04:29:23.737Z,927.84
2016-10-12T04:30:34.454Z,927.79
2016-10-12T04:31:45.169Z,927.74
2016-10-12T04:32:55.875Z,927.73
2016-10-12T04:34:06.595Z,927.65
2016-10-12T04:35:17.813Z,927.61
2016-10-12T04:36:28.532Z,927.57
2016-10-12T04:37:39.216Z,927.49
2016-10-12T04:38:49.931Z,927.53
2016-10-12T04:40:00.655Z,927.5
2016-10-12T04:41:11.386Z,927.52
2016-10-12T04:42:22.074Z,927.49
2016-10-12T04:43:32.750Z,927.46
2016-10-12T04:44:43.450Z,927.37
2016-10-12T04:45:54.145Z,927.38
2016-10-12T04:47:04.858Z,927.32
2016-10-12T04:48:15.570Z,927.3
2016-10-12T04:49:26.269Z,927.27
2016-10-12T04:50:36.999Z,927.25
2016-10-12T04:51:47.675Z,927.29
2016-10-12T04:52:58.353Z,927.28
2016-10-12T04:54:09.051Z,927.3
2016-10-12T04:55:19.747Z,927.29
2016-10-12T04:56:30.452Z,927.34
2016-10-12T04:57:41.148Z,927.28
2016-10-12T04:58:51.841Z,927.26
2016-10-12T05:00:02.555Z,927.25
2016-10-12T05:01:13.275Z,927.27
2016-10-12T05:02:23.977Z,927.23
2016-10-12T05:03:34.666Z,927.2
2016-10-12T05:04:45.340Z,927.2
2016-10-12T05:05:56.068Z,927.18
2016-10-12T05:07:06.774Z,927.22
2016-10-12T05:08:17.498Z,927.2
2016-10-12T05:09:28.214Z,927.19
2016-10-12T05:10:39.434Z,927.19
2016-10-12T05:11:50.135Z,927.22
2016-10-12T05:13:00.838Z,927.24
2016-10-12T05:14:11.575Z,927.24
2016-10-12T05:15:22.260Z,927.33
2016-10-12T05:16:32.979Z,927.31
2016-10-12T05:17:43.676Z,927.41
2016-10-12T05:18:54.401Z,927.4
2016-10-12T05:20:05.103Z,927.39
2016-10-12T05:21:15.826Z,927.42
2016-10-12T05:22:26.506Z,927.46
2016-10-12T05:23:37.220Z,927.47
2016-10-12T05:24:47.900Z,927.51
2016-10-12T05:25:58.585Z,927.52
2016-10-12T05:27:09.325Z,927.53
2016-10-12T05:28:20.013Z,927.5
2016-10-12T05:29:30.712Z,927.51
2016-10-12T05:30:41.421Z,927.47
2016-10-12T05:31:52.110Z,927.42
2016-10-12T05:33:02.825Z,927.38
2016-10-12T05:34:13.541Z,927.36
2016-10-12T05:35:24.243Z,927.36
2016-10-12T05:36:34.951Z,927.39
2016-10-12T05:37:45.649Z,927.37
2016-10-12T05:38:56.385Z,927.38
2016-10-12T05:40:07.588Z,927.39
2016-10-12T05:41:18.308Z,927.41
2016-10-12T05:42:29.018Z,927.37
2016-10-12T05:43:39.719Z,927.42
2016-10-12T05:44:50.420Z,927.37
2016-10-12T05:46:01.111Z,927.37
2016-10-12T05:47:11.815Z,927.38
2016-10-12T05:48:22.531Z,927.39
2016-10-12T05:49:33.230Z,927.41
2016-10-12T05:50:43.943Z,927.4
2016-10-12T05:51:54.659Z,927.39
2016-10-12T05:53:05.413Z,927.4
2016-10-12T05:54:16.105Z,927.43
2016-10-12T05:55:26.820Z,927.45
2016-10-12T05:56:37.543Z,927.47
2016-10-12T05:57:48.250Z,927.49
2016-10-12T05:58:58.968Z,927.51
2016-10-12T06:00:09.656Z,927.45
2016-10-12T06:01:20.342Z,927.5
2016-10-12T06:02:31.029Z,927.53
2016-10-12T06:03:41.723Z,927.54
2016-10-12T06:04:52.438Z,927.52
2016-10-12T06:06:03.132Z,927.59
2016-10-12T06:07:13.834Z,927.57
2016-10-12T06:08:24.525Z,927.59
2016-10-12T06:09:35.221Z,927.6
2016-10-12T06:10:45.931Z,927.59
2016-10-12T06:11:56.655Z,927.61
2016-10-12T06:13:07.346Z,927.63
2016-10-12T06:14:18.059Z,927.64
2016-10-12T06:15:28.751Z,927.66
2016-10-12T06:16:39.497Z,927.6
2016-10-12T06:17:50.232Z,927.59
2016-10-12T06:19:00.954Z,927.56
2016-10-12T06:20:11.653Z,927.52
2016-10-12T06:21:22.358Z,927.51
2016-10-12T06:22:33.070Z,927.46
2016-10-12T06:23:43.813Z,927.48
2016-10-12T06:24:54.551Z,927.48
2016-10-12T06:26:05.271Z,927.51
2016-10-12T06:27:15.964Z,927.54
2016-10-12T06:28:26.715Z,927.53
2016-10-12T06:29:37.425Z,927.52
2016-10-12T06:30:48.115Z,927.54
2016-10-12T06:31:58.834Z,927.49
2016-10-12T06:33:10.075Z,927.53
2016-10-12T06:34:20.836Z,927.52
2016-10-12T06:35:31.553Z,927.55
2016-10-12T06:36:42.266Z,927.57
2016-10-12T06:37:52.958Z,927.6
2016-10-12T06:39:03.674Z,927.66
2016-10-12T06:40:14.388Z,927.66
2016-10-12T06:41:25.122Z,927.64
2016-10-12T06:42:35.856Z,927.64
2016-10-12T06:43:46.558Z,927.6
2016-10-12T06:44:57.277Z,927.61
2016-10-12T06:46:07.968Z,927.61
2016-10-12T06:47:18.672Z,927.6
2016-10-12T06:48:29.389Z,927.63
2016-10-12T06:49:40.107Z,927.66
2016-10-12T06:50:50.807Z,927.68
2016-10-12T06:52:01.487Z,927.71
2016-10-12T06:53:12.213Z,927.74
2016-10-12T06:54:22.898Z,927.73
2016-10-12T06:55:33.603Z,927.76
2016-10-12T06:56:44.294Z,927.73
2016-10-12T06:57:54.991Z,927.77
2016-10-12T06:59:05.717Z,927.78
2016-10-12T07:00:16.405Z,927.72
2016-10-12T07:01:27.106Z,927.68
2016-10-12T07:02:37.838Z,927.71
2016-10-12T07:03:48.538Z,927.67
2016-10-12T07:04:59.236Z,927.68
2016-10-12T07:06:09.940Z,927.69
2016-10-12T07:07:20.664Z,927.67
2016-10-12T07:08:31.409Z,927.66
2016-10-12T07:09:42.119Z,927.69
2016-10-12T07:10:52.840Z,927.72
2016-10-12T07:12:03.529Z,927.74
2016-10-12T07:13:14.257Z,927.71
2016-10-12T07:14:24.941Z,927.7
2016-10-12T07:15:35.631Z,927.69
2016-10-12T07:16:46.605Z,927.66
2016-10-12T07:17:57.322Z,927.68
2016-10-12T07:19:08.007Z,927.72
2016-10-12T07:20:18.821Z,927.71
2016-10-12T07:21:29.637Z,927.77
2016-10-12T07:22:40.354Z,927.83
2016-10-12T07:23:51.047Z,927.92
2016-10-12T07:25:01.765Z,927.95
2016-10-12T07:26:12.482Z,928.02
2016-10-12T07:27:23.177Z,928.05
2016-10-12T07:28:33.894Z,928.02
2016-10-12T07:29:44.597Z,928.02
2016-10-12T07:30:55.320Z,927.96
2016-10-12T07:32:06.021Z,928
2016-10-12T07:33:16.707Z,927.99
2016-10-12T07:34:27.406Z,928.04
2016-10-12T07:35:38.134Z,928.09
2016-10-12T07:36:48.823Z,928.12
2016-10-12T07:37:59.523Z,928.16
2016-10-12T07:39:10.289Z,928.23
2016-10-12T07:40:21.019Z,928.27
2016-10-12T07:41:31.728Z,928.28
2016-10-12T07:42:42.457Z,928.3
2016-10-12T07:43:53.188Z,928.32
2016-10-12T07:45:03.907Z,928.31
2016-10-12T07:46:15.200Z,928.3
2016-10-12T07:47:26.617Z,928.25
2016-10-12T07:48:37.328Z,928.29
2016-10-12T07:49:48.044Z,928.3
2016-10-12T07:50:58.780Z,928.32
2016-10-12T07:52:09.514Z,928.35
2016-10-12T07:53:20.204Z,928.36
2016-10-12T07:54:30.896Z,928.4
2016-10-12T07:55:41.594Z,928.46
2016-10-12T07:56:52.338Z,928.56
2016-10-12T07:58:03.055Z,928.58
2016-10-12T07:59:13.754Z,928.59
2016-10-12T08:00:24.477Z,928.51
2016-10-12T08:01:35.172Z,928.54
2016-10-12T08:02:45.872Z,928.57
2016-10-12T08:03:56.586Z,928.57
2016-10-12T08:05:07.305Z,928.61
2016-10-12T08:06:18.020Z,928.64
2016-10-12T08:07:28.735Z,928.65
2016-10-12T08:08:39.470Z,928.67
2016-10-12T08:09:50.179Z,928.73
2016-10-12T08:11:00.895Z,928.78
2016-10-12T08:12:11.616Z,928.83
2016-10-12T08:13:22.830Z,928.85
2016-10-12T08:14:34.041Z,928.9
2016-10-12T08:15:44.750Z,928.92
2016-10-12T08:16:55.462Z,928.94
2016-10-12T08:18:06.184Z,928.93
2016-10-12T08:19:16.883Z,928.94
2016-10-12T08:20:27.590Z,929
2016-10-12T08:21:38.332Z,929
2016-10-12T08:22:49.043Z,929.02
2016-10-12T08:23:59.739Z,929.07
2016-10-12T08:25:10.459Z,929.05
2016-10-12T08:26:21.138Z,929.04
2016-10-12T08:27:31.851Z,929.02
2016-10-12T08:28:42.532Z,929.06
2016-10-12T08:29:53.221Z,929.06
2016-10-12T08:31:03.913Z,929.04
2016-10-12T08:32:14.631Z,929.07
2016-10-12T08:33:25.325Z,929.07
2016-10-12T08:34:36.033Z,929.09
2016-10-12T08:35:46.750Z,929.14
2016-10-12T08:36:57.465Z,929.15
2016-10-12T08:38:08.148Z,929.17
2016-10-12T08:39:18.897Z,929.21
2016-10-12T08:40:29.610Z,929.2
2016-10-12T08:41:40.337Z,929.17
2016-10-12T08:42:51.546Z,929.18
2016-10-12T08:44:02.287Z,929.18
2016-10-12T08:45:12.988Z,929.22
2016-10-12T08:46:23.699Z,929.26
2016-10-12T08:47:34.392Z,929.29
2016-10-12T08:48:45.090Z,929.3
2016-10-12T08:49:55.791Z,929.29
2016-10-12T08:51:06.461Z,929.29
2016-10-12T08:52:17.316Z,929.25
2016-10-12T08:53:28.052Z,929.28
2016-10-12T08:54:38.740Z,929.3
2016-10-12T08:55:49.659Z,929.33
2016-10-12T08:57:00.376Z,929.35
2016-10-12T08:58:11.090Z,929.35
2016-10-12T08:59:22.066Z,929.4
2016-10-12T09:00:32.782Z,929.42
2016-10-12T09:01:44.032Z,929.46
2016-10-12T09:02:54.772Z,929.42
2016-10-12T09:04:05.454Z,929.42
2016-10-12T09:05:16.126Z,929.44
2016-10-12T09:06:26.830Z,929.42
2016-10-12T09:07:37.540Z,929.41
2016-10-12T09:08:48.224Z,929.49
2016-10-12T09:09:58.934Z,929.49
2016-10-12T09:11:09.641Z,929.56
2016-10-12T09:12:20.507Z,929.55
2016-10-12T09:13:31.218Z,929.59
2016-10-12T09:14:41.932Z,929.65
2016-10-12T09:15:52.627Z,929.68
2016-10-12T09:17:03.338Z,929.69
2016-10-12T09:18:14.049Z,929.66
2016-10-12T09:19:24.776Z,929.68
2016-10-12T09:20:35.492Z,929.73
2016-10-12T09:21:46.208Z,929.71
2016-10-12T09:22:56.904Z,929.72
2016-10-12T09:24:08.118Z,929.73
2016-10-12T09:25:18.821Z,929.69
2016-10-12T09:26:29.519Z,929.67
2016-10-12T09:27:40.226Z,929.65
2016-10-12T09:28:50.930Z,929.66
2016-10-12T09:30:01.616Z,929.61
2016-10-12T09:31:12.334Z,929.65
2016-10-12T09:32:23.043Z,929.62
2016-10-12T09:33:33.734Z,929.61
2016-10-12T09:34:44.433Z,929.56
2016-10-12T09:35:55.153Z,929.55
2016-10-12T09:37:06.387Z,929.55
2016-10-12T09:38:17.100Z,929.54
2016-10-12T09:39:27.840Z,929.53
2016-10-12T09:40:38.542Z,929.52
2016-10-12T09:41:49.218Z,929.55
2016-10-12T09:42:59.909Z,929.56
2016-10-12T09:44:10.596Z,929.56
2016-10-12T09:45:21.856Z,929.53
2016-10-12T09:46:32.586Z,929.53
2016-10-12T09:47:43.278Z,929.53
2016-10-12T09:48:53.970Z,929.59
2016-10-12T09:50:04.699Z,929.58
2016-10-12T09:51:15.427Z,929.66
2016-10-12T09:52:26.142Z,929.69
2016-10-12T09:53:36.868Z,929.66
2016-10-12T09:54:47.581Z,929.73
2016-10-12T09:55:58.285Z,929.74
2016-10-12T09:57:09.026Z,929.76
2016-10-12T09:58:19.758Z,929.75
2016-10-12T09:59:30.444Z,929.79
2016-10-12T10:00:41.149Z,929.79
2016-10-12T10:01:51.839Z,929.8
2016-10-12T10:03:02.579Z,929.82
2016-10-12T10:04:13.287Z,929.8
2016-10-12T10:05:23.981Z,929.8
2016-10-12T10:06:34.721Z,929.77
2016-10-12T10:07:45.429Z,929.75
2016-10-12T10:08:56.148Z,929.78
2016-10-12T10:10:06.858Z,929.78
2016-10-12T10:11:17.556Z,929.74
2016-10-12T10:12:28.258Z,929.73
2016-10-12T10:13:38.972Z,929.78
2016-10-12T10:14:49.683Z,929.79
2016-10-12T10:16:00.389Z,929.8
2016-10-12T10:17:11.130Z,929.82
2016-10-12T10:18:21.919Z,929.82
2016-10-12T10:19:32.644Z,929.82
2016-10-12T10:20:43.341Z,929.84
2016-10-12T10:21:54.070Z,929.83
2016-10-12T10:23:04.806Z,929.83
2016-10-12T10:24:15.497Z,929.85
2016-10-12T10:25:26.205Z,929.8
2016-10-12T10:26:36.929Z,929.81
2016-10-12T10:27:47.665Z,929.87
2016-10-12T10:28:58.406Z,929.88
2016-10-12T10:30:09.107Z,929.93
2016-10-12T10:31:19.803Z,929.93
2016-10-12T10:32:30.556Z,929.9
2016-10-12T10:33:41.266Z,929.91
2016-10-12T10:34:51.965Z,929.91
2016-10-12T10:36:02.703Z,929.9
2016-10-12T10:37:13.410Z,929.95
2016-10-12T10:38:24.635Z,929.98
2016-10-12T10:39:35.362Z,930.02
2016-10-12T10:40:46.062Z,930.07
2016-10-12T10:41:56.795Z,930.04
2016-10-12T10:43:07.523Z,930.03
2016-10-12T10:44:18.781Z,930.1
2016-10-12T10:45:29.489Z,930.01
2016-10-12T10:46:40.244Z,929.99
2016-10-12T10:47:50.929Z,930.01
2016-10-12T10:49:01.656Z,929.99
2016-10-12T10:50:12.342Z,930.06
2016-10-12T10:51:23.081Z,930.04
2016-10-12T10:52:33.815Z,930.06
2016-10-12T10:53:44.500Z,930.1
2016-10-12T10:54:55.223Z,930.11
2016-10-12T10:56:05.962Z,930.12
2016-10-12T10:57:16.700Z,930.11
2016-10-12T10:58:27.420Z,930.09
2016-10-12T10:59:38.123Z,930.11
2016-10-12T11:00:48.832Z,930.12
2016-10-12T11:02:00.108Z,930.11
2016-10-12T11:03:10.849Z,930.17
2016-10-12T11:04:21.583Z,930.16
2016-10-12T11:05:32.837Z,930.16
2016-10-12T11:06:43.566Z,930.16
2016-10-12T11:07:54.297Z,930.13
2016-10-12T11:09:05.025Z,930.13
2016-10-12T11:10:15.785Z,930.15
2016-10-12T11:11:26.494Z,930.07
2016-10-12T11:12:37.216Z,930.09
2016-10-12T11:13:47.931Z,930.04
2016-10-12T11:14:58.653Z,930.06
2016-10-12T11:16:09.365Z,930.03
2016-10-12T11:17:20.113Z,930.01
2016-10-12T11:18:30.851Z,930.04
2016-10-12T11:19:41.580Z,930.05
2016-10-12T11:20:52.362Z,930.03
2016-10-12T11:22:03.437Z,930.07
2016-10-12T11:23:14.161Z,930.08
2016-10-12T11:24:24.891Z,930.03
2016-10-12T11:25:35.657Z,930.06
2016-10-12T11:26:46.385Z,930.02
2016-10-12T11:27:57.095Z,929.98
2016-10-12T11:29:07.796Z,930
2016-10-12T11:30:19.028Z,929.98
2016-10-12T11:31:29.751Z,929.98
2016-10-12T11:32:40.461Z,929.91
2016-10-12T11:33:51.229Z,929.92
2016-10-12T11:35:01.980Z,929.95
2016-10-12T11:36:12.694Z,929.92
2016-10-12T11:37:23.409Z,929.95
2016-10-12T11:38:34.128Z,929.95
2016-10-12T11:39:44.840Z,929.96
2016-10-12T11:40:55.577Z,929.94
2016-10-12T11:42:06.309Z,929.92
2016-10-12T11:43:17.047Z,929.89
2016-10-12T11:44:27.770Z,929.89
2016-10-12T11:45:38.468Z,929.86
2016-10-12T11:46:49.183Z,929.9
2016-10-12T11:47:59.944Z,929.88
2016-10-12T11:49:10.753Z,929.87
2016-10-12T11:50:21.512Z,929.89
2016-10-12T11:51:32.751Z,929.75
2016-10-12T11:52:43.473Z,929.73
2016-10-12T11:53:54.174Z,929.68
2016-10-12T11:55:04.903Z,929.68
2016-10-12T11:56:15.621Z,929.68
2016-10-12T11:57:26.327Z,929.64
2016-10-12T11:58:37.065Z,929.65
2016-10-12T11:59:47.798Z,929.64
2016-10-12T12:00:59.052Z,929.66
2016-10-12T12:02:09.800Z,929.6
2016-10-12T12:03:20.520Z,929.63
2016-10-12T12:04:31.241Z,929.56
2016-10-12T12:05:41.943Z,929.54
2016-10-12T12:06:52.661Z,929.55
2016-10-12T12:08:03.372Z,929.51
2016-10-12T12:09:14.125Z,929.47
2016-10-12T12:10:24.836Z,929.47
2016-10-12T12:11:35.568Z,929.48
2016-10-12T12:12:46.335Z,929.42
2016-10-12T12:13:57.063Z,929.4
2016-10-12T12:15:07.786Z,929.47
2016-10-12T12:16:18.529Z,929.41
2016-10-12T12:17:29.282Z,929.4
2016-10-12T12:18:40.006Z,929.36
2016-10-12T12:19:50.739Z,929.38
2016-10-12T12:21:01.455Z,929.35
2016-10-12T12:22:12.208Z,929.31
2016-10-12T12:23:22.933Z,929.28
2016-10-12T12:24:33.661Z,929.28
2016-10-12T12:25:44.385Z,929.25
2016-10-12T12:26:55.102Z,929.31
2016-10-12T12:28:05.849Z,929.23
2016-10-12T12:29:17.072Z,929.23
2016-10-12T12:30:27.823Z,929.26
2016-10-12T12:31:38.521Z,929.19
2016-10-12T12:32:49.262Z,929.21
2016-10-12T12:33:59.996Z,929.22
2016-10-12T12:35:10.740Z,929.23
2016-10-12T12:36:21.495Z,929.22
2016-10-12T12:37:32.241Z,929.2
2016-10-12T12:38:42.997Z,929.17
2016-10-12T12:39:53.718Z,929.19
2016-10-12T12:41:04.428Z,929.16
2016-10-12T12:42:15.148Z,929.23
2016-10-12T12:43:25.893Z,929.22
2016-10-12T12:44:36.614Z,929.19
2016-10-12T12:45:47.343Z,929.17
2016-10-12T12:46:58.065Z,929.13
2016-10-12T12:48:08.765Z,929.12
2016-10-12T12:49:19.474Z,929.08
2016-10-12T12:50:30.171Z,929.05
2016-10-12T12:51:40.877Z,929.05
2016-10-12T12:52:51.589Z,929.07
2016-10-12T12:54:02.324Z,929.04
2016-10-12T12:55:13.043Z,929.04
2016-10-12T12:56:23.745Z,929.08
2016-10-12T12:57:34.473Z,929.07
2016-10-12T12:58:45.190Z,929.13
2016-10-12T12:59:55.904Z,929.12
2016-10-12T13:01:07.159Z,929.1
2016-10-12T13:02:17.848Z,929.08
2016-10-12T13:03:28.587Z,929.07
2016-10-12T13:04:39.293Z,929.06
2016-10-12T13:05:50.004Z,929.05
2016-10-12T13:07:00.755Z,929.08
2016-10-12T13:08:11.456Z,929.05
2016-10-12T13:09:22.224Z,929.06
2016-10-12T13:10:32.958Z,929.1
2016-10-12T13:11:43.680Z,929.07
2016-10-12T13:12:54.426Z,929.16
2016-10-12T13:14:05.160Z,929.1
2016-10-12T13:15:15.865Z,929.09
2016-10-12T13:16:26.588Z,929.1
2016-10-12T13:17:37.333Z,929.13
2016-10-12T13:18:48.053Z,929.05
2016-10-12T13:19:58.794Z,929.11
2016-10-12T13:21:09.503Z,929.02
2016-10-12T13:22:20.232Z,929.02
2016-10-12T13:23:30.948Z,929.03
2016-10-12T13:24:41.657Z,929.01
2016-10-12T13:25:52.390Z,929.02
2016-10-12T13:27:03.140Z,928.99
2016-10-12T13:28:13.853Z,929.01
2016-10-12T13:29:24.548Z,928.98
2016-10-12T13:30:35.278Z,928.97
2016-10-12T13:31:46.000Z,928.94
2016-10-12T13:32:56.708Z,928.99
2016-10-12T13:34:07.476Z,928.92
2016-10-12T13:35:18.218Z,928.89
2016-10-12T13:36:28.946Z,928.9
2016-10-12T13:37:39.646Z,928.83
2016-10-12T13:38:50.355Z,928.77
2016-10-12T13:40:01.082Z,928.81
2016-10-12T13:41:11.793Z,928.8
2016-10-12T13:42:22.527Z,928.81
2016-10-12T13:43:33.258Z,928.72
2016-10-12T13:44:44.002Z,928.72
2016-10-12T13:45:54.736Z,928.77
2016-10-12T13:47:05.428Z,928.74
2016-10-12T13:48:16.123Z,928.67
2016-10-12T13:49:26.853Z,928.65
2016-10-12T13:50:37.567Z,928.59
2016-10-12T13:51:48.306Z,928.66
2016-10-12T13:52:59.057Z,928.65
2016-10-12T13:54:09.773Z,928.61
2016-10-12T13:55:20.504Z,928.56
2016-10-12T13:56:31.725Z,928.51
2016-10-12T13:57:42.454Z,928.5
2016-10-12T13:58:53.199Z,928.55
2016-10-12T14:00:03.905Z,928.49
2016-10-12T14:01:14.638Z,928.52
2016-10-12T14:02:25.376Z,928.52
2016-10-12T14:03:36.101Z,928.53
2016-10-12T14:04:46.818Z,928.47
2016-10-12T14:05:57.528Z,928.37
2016-10-12T14:07:08.262Z,928.44
2016-10-12T14:08:18.968Z,928.4
2016-10-12T14:09:29.667Z,928.31
2016-10-12T14:10:40.374Z,928.37
2016-10-12T14:11:51.105Z,928.34
2016-10-12T14:13:01.844Z,928.22
2016-10-12T14:14:13.104Z,928.35
2016-10-12T14:15:24.333Z,928.22
2016-10-12T14:16:35.056Z,928.36
2016-10-12T14:17:45.789Z,928.26
2016-10-12T14:18:56.526Z,928.31
2016-10-12T14:20:07.268Z,928.3
2016-10-12T14:21:17.995Z,928.38
2016-10-12T14:22:28.720Z,928.36
2016-10-12T14:23:39.456Z,928.3
2016-10-12T14:24:50.210Z,928.33
2016-10-12T14:26:00.946Z,928.35
2016-10-12T14:27:11.689Z,928.29
2016-10-12T14:28:22.906Z,928.28
2016-10-12T14:29:33.629Z,928.26
2016-10-12T14:30:44.338Z,928.3
2016-10-12T14:31:55.059Z,928.36
2016-10-12T14:33:05.791Z,928.28
2016-10-12T14:34:16.639Z,928.17
2016-10-12T14:35:27.338Z,928.26
2016-10-12T14:36:38.070Z,928.16
2016-10-12T14:37:48.797Z,928.25
2016-10-12T14:38:59.516Z,928.15
2016-10-12T14:40:10.764Z,928.21
2016-10-12T14:41:21.505Z,928.2
2016-10-12T14:42:32.234Z,928.23
2016-10-12T14:43:42.966Z,928.13
2016-10-12T14:44:53.724Z,928.1
2016-10-12T14:46:04.456Z,928.1